MAINE99 KPWM-KPSM
Flight info
| Callsign | MAINE99 |
|---|---|
| Flight time | 3h 9m |
| Altitude | 28000 |
| Route | HSKEL RUT SYR087075 CON |
| Aircraft | K35R/H-SDE3FGHIM1M2RWXY/LB1 |
Departure
| Time | 2026-05-06 20:45 |
|---|---|
| Airport | Portland International Jetport (KPWM) |
Arrival
| Time | 2026-05-06 23:55 |
|---|---|
| Airport | Portsmouth International Airport at Pease (KPSM) |
| Time | Latitude | Longitude | Altitude | Speed | Heading |
|---|---|---|---|---|---|
| 2026-05-06 20:26 | 43.65035 | -70.30820 | 72 ft | 0 kts | 358° |
| 2026-05-06 20:36 | 43.65036 | -70.30820 | 72 ft | 0 kts | 358° |
| 2026-05-06 20:36 | 43.65037 | -70.30820 | 72 ft | 0 kts | 358° |
| 2026-05-06 20:36 | 43.65041 | -70.30820 | 72 ft | 1 kts | 359° |
| 2026-05-06 20:36 | 43.65058 | -70.30813 | 65 ft | 4 kts | 36° |
| 2026-05-06 20:37 | 43.65064 | -70.30764 | 64 ft | 8 kts | 115° |
| 2026-05-06 20:37 | 43.65005 | -70.30719 | 60 ft | 12 kts | 170° |
| 2026-05-06 20:37 | 43.64924 | -70.30709 | 63 ft | 11 kts | 178° |
| 2026-05-06 20:37 | 43.64855 | -70.30706 | 64 ft | 9 kts | 178° |
| 2026-05-06 20:38 | 43.64783 | -70.30704 | 56 ft | 11 kts | 178° |
| 2026-05-06 20:38 | 43.64715 | -70.30702 | 58 ft | 9 kts | 178° |
| 2026-05-06 20:38 | 43.64659 | -70.30699 | 58 ft | 7 kts | 178° |
| 2026-05-06 20:38 | 43.64612 | -70.30696 | 61 ft | 6 kts | 178° |
| 2026-05-06 20:39 | 43.64574 | -70.30694 | 58 ft | 6 kts | 178° |
| 2026-05-06 20:39 | 43.64532 | -70.30692 | 62 ft | 6 kts | 177° |
| 2026-05-06 20:39 | 43.64493 | -70.30693 | 61 ft | 6 kts | 189° |
| 2026-05-06 20:39 | 43.64467 | -70.30718 | 58 ft | 4 kts | 241° |
| 2026-05-06 20:40 | 43.64462 | -70.30769 | 60 ft | 8 kts | 271° |
| 2026-05-06 20:40 | 43.64469 | -70.30878 | 65 ft | 15 kts | 276° |
| 2026-05-06 20:40 | 43.64481 | -70.31035 | 64 ft | 18 kts | 275° |
| 2026-05-06 20:40 | 43.64495 | -70.31225 | 69 ft | 20 kts | 275° |
| 2026-05-06 20:41 | 43.64507 | -70.31410 | 79 ft | 18 kts | 274° |
| 2026-05-06 20:41 | 43.64518 | -70.31565 | 81 ft | 15 kts | 275° |
| 2026-05-06 20:41 | 43.64527 | -70.31698 | 85 ft | 13 kts | 275° |
| 2026-05-06 20:41 | 43.64535 | -70.31816 | 86 ft | 11 kts | 275° |
| 2026-05-06 20:42 | 43.64542 | -70.31933 | 92 ft | 13 kts | 275° |
| 2026-05-06 20:42 | 43.64552 | -70.32074 | 93 ft | 16 kts | 275° |
| 2026-05-06 20:42 | 43.64564 | -70.32226 | 95 ft | 15 kts | 276° |
| 2026-05-06 20:42 | 43.64573 | -70.32356 | 97 ft | 13 kts | 275° |
| 2026-05-06 20:43 | 43.64582 | -70.32461 | 96 ft | 9 kts | 287° |
| 2026-05-06 20:43 | 43.64604 | -70.32492 | 96 ft | 6 kts | 342° |
| 2026-05-06 20:43 | 43.64646 | -70.32494 | 97 ft | 7 kts | 4° |
| 2026-05-06 20:43 | 43.64680 | -70.32500 | 97 ft | 3 kts | 318° |
| 2026-05-06 20:44 | 43.64688 | -70.32538 | 99 ft | 6 kts | 263° |
| 2026-05-06 20:44 | 43.64659 | -70.32580 | 97 ft | 7 kts | 197° |
| 2026-05-06 20:44 | 43.64594 | -70.32577 | 96 ft | 5 kts | 144° |
| 2026-05-06 20:44 | 43.64585 | -70.32558 | 96 ft | 1 kts | 103° |
| 2026-05-06 20:45 | 43.64582 | -70.32527 | 98 ft | 8 kts | 97° |
| 2026-05-06 20:45 | 43.64562 | -70.32253 | 94 ft | 83 kts | 97° |
| 2026-05-06 20:45 | 43.64484 | -70.30982 | 141 ft | 175 kts | 97° |
| 2026-05-06 20:45 | 43.64344 | -70.29068 | 694 ft | 227 kts | 99° |
| 2026-05-06 20:46 | 43.64294 | -70.26860 | 2604 ft | 240 kts | 91° |
| 2026-05-06 20:46 | 43.64909 | -70.24521 | 3832 ft | 280 kts | 61° |
| 2026-05-06 20:46 | 43.66243 | -70.22376 | 4964 ft | 310 kts | 36° |
| 2026-05-06 20:46 | 43.68194 | -70.21153 | 6413 ft | 307 kts | 4° |
| 2026-05-06 20:47 | 43.70273 | -70.21175 | 7946 ft | 296 kts | 340° |
| 2026-05-06 20:47 | 43.72184 | -70.22072 | 9408 ft | 286 kts | 320° |
| 2026-05-06 20:47 | 43.73726 | -70.23740 | 10632 ft | 284 kts | 302° |
| 2026-05-06 20:47 | 43.74779 | -70.26045 | 11450 ft | 296 kts | 285° |
| 2026-05-06 20:48 | 43.75324 | -70.28875 | 12138 ft | 317 kts | 276° |
| 2026-05-06 20:48 | 43.75752 | -70.31990 | 12700 ft | 343 kts | 276° |
| 2026-05-06 20:48 | 43.76219 | -70.35355 | 13167 ft | 370 kts | 276° |
| 2026-05-06 20:48 | 43.76465 | -70.38948 | 13917 ft | 377 kts | 266° |
| 2026-05-06 20:49 | 43.76241 | -70.42548 | 14921 ft | 377 kts | 260° |
| 2026-05-06 20:49 | 43.75894 | -70.46166 | 15859 ft | 380 kts | 260° |
| 2026-05-06 20:49 | 43.75531 | -70.49707 | 17161 ft | 373 kts | 260° |
| 2026-05-06 20:49 | 43.75154 | -70.53284 | 18399 ft | 369 kts | 259° |
| 2026-05-06 20:50 | 43.74796 | -70.56739 | 19404 ft | 367 kts | 259° |
| 2026-05-06 20:50 | 43.74439 | -70.60220 | 20403 ft | 365 kts | 259° |
| 2026-05-06 20:50 | 43.74081 | -70.63682 | 21435 ft | 362 kts | 258° |
| 2026-05-06 20:50 | 43.73722 | -70.67117 | 22445 ft | 359 kts | 257° |
| 2026-05-06 20:51 | 43.73366 | -70.70522 | 23453 ft | 356 kts | 257° |
| 2026-05-06 20:51 | 43.73011 | -70.73906 | 24201 ft | 356 kts | 257° |
| 2026-05-06 20:51 | 43.72655 | -70.77290 | 24903 ft | 355 kts | 257° |
| 2026-05-06 20:51 | 43.72195 | -70.80627 | 25660 ft | 351 kts | 251° |
| 2026-05-06 20:52 | 43.71395 | -70.83784 | 26476 ft | 346 kts | 245° |
| 2026-05-06 20:52 | 43.70510 | -70.86871 | 27317 ft | 345 kts | 246° |
| 2026-05-06 20:52 | 43.69621 | -70.89984 | 27779 ft | 355 kts | 246° |
| 2026-05-06 20:52 | 43.68699 | -70.93188 | 27766 ft | 358 kts | 246° |
| 2026-05-06 20:53 | 43.67794 | -70.96330 | 27769 ft | 357 kts | 246° |
| 2026-05-06 20:53 | 43.66877 | -70.99509 | 27768 ft | 356 kts | 246° |
| 2026-05-06 20:53 | 43.65974 | -71.02700 | 27771 ft | 357 kts | 249° |
| 2026-05-06 20:53 | 43.65357 | -71.06031 | 27780 ft | 361 kts | 256° |
| 2026-05-06 20:54 | 43.65086 | -71.09493 | 27786 ft | 364 kts | 261° |
| 2026-05-06 20:54 | 43.64880 | -71.12960 | 27780 ft | 362 kts | 261° |
| 2026-05-06 20:54 | 43.64671 | -71.16425 | 27786 ft | 362 kts | 261° |
| 2026-05-06 20:54 | 43.64465 | -71.19892 | 27785 ft | 362 kts | 261° |
| 2026-05-06 20:55 | 43.64260 | -71.23356 | 27787 ft | 362 kts | 261° |
| 2026-05-06 20:55 | 43.64056 | -71.26768 | 27785 ft | 362 kts | 261° |
| 2026-05-06 20:55 | 43.63846 | -71.30227 | 27765 ft | 362 kts | 261° |
| 2026-05-06 20:55 | 43.63638 | -71.33664 | 27778 ft | 358 kts | 261° |
| 2026-05-06 20:56 | 43.63430 | -71.37085 | 27779 ft | 358 kts | 261° |
| 2026-05-06 20:56 | 43.63220 | -71.40511 | 27780 ft | 359 kts | 261° |
| 2026-05-06 20:56 | 43.63008 | -71.43949 | 27781 ft | 360 kts | 261° |
| 2026-05-06 20:56 | 43.62795 | -71.47393 | 27807 ft | 361 kts | 262° |
| 2026-05-06 20:57 | 43.62580 | -71.50858 | 27783 ft | 361 kts | 262° |
| 2026-05-06 20:57 | 43.62365 | -71.54314 | 27787 ft | 361 kts | 262° |
| 2026-05-06 20:57 | 43.62151 | -71.57721 | 27786 ft | 362 kts | 262° |
| 2026-05-06 20:57 | 43.61933 | -71.61181 | 27787 ft | 362 kts | 261° |
| 2026-05-06 20:58 | 43.61713 | -71.64644 | 27778 ft | 362 kts | 261° |
| 2026-05-06 20:58 | 43.61494 | -71.68096 | 27777 ft | 360 kts | 261° |
| 2026-05-06 20:58 | 43.61274 | -71.71532 | 27779 ft | 360 kts | 261° |
| 2026-05-06 20:58 | 43.61053 | -71.74968 | 27775 ft | 360 kts | 262° |
| 2026-05-06 20:59 | 43.60831 | -71.78408 | 27774 ft | 360 kts | 261° |
| 2026-05-06 20:59 | 43.60608 | -71.81846 | 27764 ft | 359 kts | 261° |
| 2026-05-06 20:59 | 43.60385 | -71.85279 | 27764 ft | 359 kts | 261° |
| 2026-05-06 20:59 | 43.60160 | -71.88706 | 27773 ft | 361 kts | 262° |
| 2026-05-06 21:00 | 43.59930 | -71.92169 | 27769 ft | 362 kts | 262° |
| 2026-05-06 21:00 | 43.59703 | -71.95623 | 27765 ft | 362 kts | 262° |
| 2026-05-06 21:00 | 43.59478 | -71.99035 | 27764 ft | 361 kts | 262° |
| 2026-05-06 21:00 | 43.59247 | -72.02487 | 27764 ft | 362 kts | 262° |
| 2026-05-06 21:01 | 43.59015 | -72.05944 | 27767 ft | 362 kts | 262° |
| 2026-05-06 21:01 | 43.58782 | -72.09403 | 27762 ft | 362 kts | 262° |
| 2026-05-06 21:01 | 43.58549 | -72.12859 | 27750 ft | 361 kts | 262° |
| 2026-05-06 21:01 | 43.58315 | -72.16302 | 27729 ft | 360 kts | 262° |
| 2026-05-06 21:02 | 43.58085 | -72.19702 | 27743 ft | 355 kts | 262° |
| 2026-05-06 21:02 | 43.57851 | -72.23100 | 27742 ft | 357 kts | 262° |
| 2026-05-06 21:02 | 43.57615 | -72.26504 | 27766 ft | 357 kts | 262° |
| 2026-05-06 21:02 | 43.57380 | -72.29916 | 27746 ft | 357 kts | 262° |
| 2026-05-06 21:03 | 43.57144 | -72.33320 | 27750 ft | 357 kts | 262° |
| 2026-05-06 21:03 | 43.56909 | -72.36686 | 27750 ft | 358 kts | 262° |
| 2026-05-06 21:03 | 43.56670 | -72.40099 | 27751 ft | 358 kts | 262° |
| 2026-05-06 21:03 | 43.56430 | -72.43511 | 27752 ft | 357 kts | 262° |
| 2026-05-06 21:04 | 43.56190 | -72.46915 | 27750 ft | 357 kts | 262° |
| 2026-05-06 21:04 | 43.55948 | -72.50324 | 27750 ft | 357 kts | 262° |
| 2026-05-06 21:04 | 43.55705 | -72.53726 | 27755 ft | 357 kts | 262° |
| 2026-05-06 21:04 | 43.55462 | -72.57128 | 27754 ft | 357 kts | 262° |
| 2026-05-06 21:05 | 43.55220 | -72.60491 | 27786 ft | 357 kts | 262° |
| 2026-05-06 21:05 | 43.54973 | -72.63910 | 27752 ft | 359 kts | 262° |
| 2026-05-06 21:05 | 43.54725 | -72.67336 | 27797 ft | 359 kts | 262° |
| 2026-05-06 21:05 | 43.54476 | -72.70763 | 27809 ft | 360 kts | 262° |
| 2026-05-06 21:06 | 43.54226 | -72.74188 | 27816 ft | 359 kts | 262° |
| 2026-05-06 21:06 | 43.53974 | -72.77616 | 27817 ft | 360 kts | 262° |
| 2026-05-06 21:06 | 43.53722 | -72.81036 | 27821 ft | 359 kts | 262° |
| 2026-05-06 21:06 | 43.53469 | -72.84460 | 27822 ft | 359 kts | 262° |
| 2026-05-06 21:07 | 43.53215 | -72.87880 | 27819 ft | 359 kts | 262° |
| 2026-05-06 21:07 | 43.52963 | -72.91253 | 27823 ft | 359 kts | 262° |
| 2026-05-06 21:07 | 43.52708 | -72.94668 | 27820 ft | 359 kts | 263° |
| 2026-05-06 21:07 | 43.52548 | -72.98111 | 27818 ft | 361 kts | 264° |
| 2026-05-06 21:08 | 43.52409 | -73.01554 | 27816 ft | 360 kts | 264° |
| 2026-05-06 21:08 | 43.52265 | -73.04999 | 27814 ft | 361 kts | 264° |
| 2026-05-06 21:08 | 43.52117 | -73.08452 | 27812 ft | 361 kts | 264° |
| 2026-05-06 21:08 | 43.51970 | -73.11900 | 27821 ft | 361 kts | 264° |
| 2026-05-06 21:09 | 43.51825 | -73.15303 | 27825 ft | 360 kts | 264° |
| 2026-05-06 21:09 | 43.51677 | -73.18740 | 27814 ft | 360 kts | 264° |
| 2026-05-06 21:09 | 43.51527 | -73.22182 | 27818 ft | 360 kts | 264° |
| 2026-05-06 21:09 | 43.51376 | -73.25626 | 27824 ft | 361 kts | 264° |
| 2026-05-06 21:10 | 43.51224 | -73.29076 | 27822 ft | 361 kts | 264° |
| 2026-05-06 21:10 | 43.51071 | -73.32534 | 27815 ft | 361 kts | 264° |
| 2026-05-06 21:10 | 43.50917 | -73.35979 | 27827 ft | 360 kts | 264° |
| 2026-05-06 21:10 | 43.50762 | -73.39424 | 27831 ft | 361 kts | 264° |
| 2026-05-06 21:11 | 43.50605 | -73.42876 | 27817 ft | 361 kts | 264° |
| 2026-05-06 21:11 | 43.50451 | -73.46273 | 27806 ft | 360 kts | 264° |
| 2026-05-06 21:11 | 43.50293 | -73.49707 | 27811 ft | 360 kts | 264° |
| 2026-05-06 21:11 | 43.50134 | -73.53143 | 27813 ft | 360 kts | 264° |
| 2026-05-06 21:12 | 43.49975 | -73.56573 | 27812 ft | 359 kts | 264° |
| 2026-05-06 21:12 | 43.49814 | -73.60008 | 27816 ft | 359 kts | 264° |
| 2026-05-06 21:12 | 43.49652 | -73.63449 | 27813 ft | 360 kts | 264° |
| 2026-05-06 21:12 | 43.49489 | -73.66883 | 27822 ft | 360 kts | 263° |
| 2026-05-06 21:13 | 43.49325 | -73.70322 | 27821 ft | 359 kts | 264° |
| 2026-05-06 21:13 | 43.49160 | -73.73755 | 27824 ft | 360 kts | 263° |
| 2026-05-06 21:13 | 43.48994 | -73.77191 | 27822 ft | 359 kts | 263° |
| 2026-05-06 21:13 | 43.48830 | -73.80573 | 27829 ft | 360 kts | 263° |
| 2026-05-06 21:14 | 43.48662 | -73.84008 | 27822 ft | 360 kts | 263° |
| 2026-05-06 21:14 | 43.48493 | -73.87447 | 27820 ft | 360 kts | 263° |
| 2026-05-06 21:14 | 43.48323 | -73.90886 | 27825 ft | 360 kts | 263° |
| 2026-05-06 21:14 | 43.48151 | -73.94335 | 27824 ft | 361 kts | 263° |
| 2026-05-06 21:15 | 43.47978 | -73.97776 | 27797 ft | 360 kts | 264° |
| 2026-05-06 21:15 | 43.47807 | -74.01196 | 27836 ft | 357 kts | 264° |
| 2026-05-06 21:15 | 43.47634 | -74.04610 | 27814 ft | 357 kts | 263° |
| 2026-05-06 21:15 | 43.47462 | -74.07968 | 27815 ft | 357 kts | 263° |
| 2026-05-06 21:16 | 43.47286 | -74.11374 | 27815 ft | 357 kts | 263° |
| 2026-05-06 21:16 | 43.47111 | -74.14784 | 27811 ft | 358 kts | 263° |
| 2026-05-06 21:16 | 43.46933 | -74.18205 | 27811 ft | 358 kts | 263° |
| 2026-05-06 21:16 | 43.46755 | -74.21621 | 27808 ft | 358 kts | 263° |
| 2026-05-06 21:17 | 43.46575 | -74.25043 | 27813 ft | 358 kts | 263° |
| 2026-05-06 21:17 | 43.46395 | -74.28459 | 27814 ft | 359 kts | 263° |
| 2026-05-06 21:17 | 43.46212 | -74.31891 | 27815 ft | 359 kts | 263° |
| 2026-05-06 21:17 | 43.46032 | -74.35273 | 27812 ft | 359 kts | 263° |
| 2026-05-06 21:18 | 43.45848 | -74.38696 | 27816 ft | 358 kts | 263° |
| 2026-05-06 21:18 | 43.45663 | -74.42113 | 27816 ft | 358 kts | 263° |
| 2026-05-06 21:18 | 43.45478 | -74.45529 | 27817 ft | 358 kts | 263° |
| 2026-05-06 21:18 | 43.45291 | -74.48947 | 27818 ft | 359 kts | 263° |
| 2026-05-06 21:19 | 43.45103 | -74.52364 | 27830 ft | 359 kts | 263° |
| 2026-05-06 21:19 | 43.44962 | -74.55796 | 27832 ft | 359 kts | 265° |
| 2026-05-06 21:19 | 43.44885 | -74.59226 | 27830 ft | 359 kts | 265° |
| 2026-05-06 21:19 | 43.44808 | -74.62662 | 27831 ft | 359 kts | 265° |
| 2026-05-06 21:20 | 43.44726 | -74.66052 | 27840 ft | 359 kts | 265° |
| 2026-05-06 21:20 | 43.44642 | -74.69474 | 27842 ft | 358 kts | 265° |
| 2026-05-06 21:20 | 43.44558 | -74.72908 | 27838 ft | 359 kts | 265° |
| 2026-05-06 21:20 | 43.44474 | -74.76336 | 27837 ft | 359 kts | 265° |
| 2026-05-06 21:21 | 43.44388 | -74.79765 | 27845 ft | 359 kts | 265° |
| 2026-05-06 21:21 | 43.44301 | -74.83202 | 27843 ft | 359 kts | 265° |
| 2026-05-06 21:21 | 43.44212 | -74.86636 | 27847 ft | 359 kts | 265° |
| 2026-05-06 21:21 | 43.44123 | -74.90069 | 27848 ft | 359 kts | 265° |
| 2026-05-06 21:22 | 43.44033 | -74.93509 | 27846 ft | 360 kts | 265° |
| 2026-05-06 21:22 | 43.43942 | -74.96941 | 27846 ft | 359 kts | 265° |
| 2026-05-06 21:22 | 43.43851 | -75.00326 | 27845 ft | 359 kts | 265° |
| 2026-05-06 21:22 | 43.43758 | -75.03754 | 27847 ft | 359 kts | 265° |
| 2026-05-06 21:23 | 43.43664 | -75.07182 | 27851 ft | 358 kts | 265° |
| 2026-05-06 21:23 | 43.43569 | -75.10594 | 27853 ft | 357 kts | 265° |
| 2026-05-06 21:23 | 43.43475 | -75.14007 | 27855 ft | 357 kts | 266° |
| 2026-05-06 21:23 | 43.43619 | -75.17431 | 27871 ft | 361 kts | 275° |
| 2026-05-06 21:24 | 43.44171 | -75.20814 | 27869 ft | 366 kts | 283° |
| 2026-05-06 21:24 | 43.45129 | -75.24072 | 27872 ft | 369 kts | 291° |
| 2026-05-06 21:24 | 43.46479 | -75.27107 | 27890 ft | 376 kts | 300° |
| 2026-05-06 21:24 | 43.48190 | -75.29807 | 27863 ft | 384 kts | 309° |
| 2026-05-06 21:25 | 43.50275 | -75.32134 | 27866 ft | 390 kts | 319° |
| 2026-05-06 21:25 | 43.52672 | -75.33962 | 27868 ft | 398 kts | 328° |
| 2026-05-06 21:25 | 43.55315 | -75.35197 | 27863 ft | 406 kts | 339° |
| 2026-05-06 21:25 | 43.58138 | -75.35758 | 27870 ft | 415 kts | 350° |
| 2026-05-06 21:26 | 43.61048 | -75.35585 | 27860 ft | 423 kts | 1° |
| 2026-05-06 21:26 | 43.63927 | -75.34635 | 27855 ft | 430 kts | 13° |
| 2026-05-06 21:26 | 43.66667 | -75.32909 | 27884 ft | 437 kts | 26° |
| 2026-05-06 21:26 | 43.69146 | -75.30435 | 27858 ft | 443 kts | 38° |
| 2026-05-06 21:27 | 43.71218 | -75.27345 | 27857 ft | 447 kts | 51° |
| 2026-05-06 21:27 | 43.72835 | -75.23674 | 27861 ft | 449 kts | 64° |
| 2026-05-06 21:27 | 43.73889 | -75.19620 | 27852 ft | 449 kts | 78° |
| 2026-05-06 21:27 | 43.74330 | -75.15366 | 27859 ft | 445 kts | 91° |
| 2026-05-06 21:28 | 43.74155 | -75.11126 | 27853 ft | 440 kts | 104° |
| 2026-05-06 21:28 | 43.73389 | -75.07076 | 27859 ft | 432 kts | 116° |
| 2026-05-06 21:28 | 43.72099 | -75.03383 | 27848 ft | 421 kts | 128° |
| 2026-05-06 21:28 | 43.70373 | -75.00179 | 27854 ft | 413 kts | 140° |
| 2026-05-06 21:29 | 43.68416 | -74.97267 | 27851 ft | 414 kts | 140° |
| 2026-05-06 21:29 | 43.66479 | -74.94398 | 27849 ft | 414 kts | 140° |
| 2026-05-06 21:29 | 43.64509 | -74.91507 | 27848 ft | 414 kts | 141° |
| 2026-05-06 21:29 | 43.62537 | -74.88622 | 27851 ft | 413 kts | 141° |
| 2026-05-06 21:30 | 43.60566 | -74.85729 | 27850 ft | 413 kts | 140° |
| 2026-05-06 21:30 | 43.58593 | -74.82835 | 27835 ft | 416 kts | 140° |
| 2026-05-06 21:30 | 43.56606 | -74.79926 | 27840 ft | 417 kts | 140° |
| 2026-05-06 21:30 | 43.54618 | -74.77019 | 27842 ft | 416 kts | 140° |
| 2026-05-06 21:31 | 43.52630 | -74.74114 | 27837 ft | 416 kts | 140° |
| 2026-05-06 21:31 | 43.50645 | -74.71217 | 27837 ft | 416 kts | 140° |
| 2026-05-06 21:31 | 43.48696 | -74.68328 | 27839 ft | 419 kts | 136° |
| 2026-05-06 21:31 | 43.47028 | -74.64989 | 27845 ft | 428 kts | 124° |
| 2026-05-06 21:32 | 43.45831 | -74.61210 | 27834 ft | 435 kts | 112° |
| 2026-05-06 21:32 | 43.45117 | -74.52897 | 27835 ft | 445 kts | 88° |
| 2026-05-06 21:32 | 43.45622 | -74.48688 | 27830 ft | 448 kts | 75° |
| 2026-05-06 21:33 | 43.46738 | -74.44689 | 27824 ft | 449 kts | 62° |
| 2026-05-06 21:33 | 43.48414 | -74.41086 | 27834 ft | 446 kts | 49° |
| 2026-05-06 21:33 | 43.50558 | -74.38042 | 27828 ft | 441 kts | 36° |
| 2026-05-06 21:33 | 43.53032 | -74.35693 | 27795 ft | 435 kts | 23° |
| 2026-05-06 21:34 | 43.55780 | -74.34054 | 27829 ft | 429 kts | 11° |
| 2026-05-06 21:34 | 43.58660 | -74.33184 | 27831 ft | 419 kts | 359° |
| 2026-05-06 21:34 | 43.61543 | -74.33079 | 27836 ft | 411 kts | 348° |
| 2026-05-06 21:34 | 43.64332 | -74.33698 | 27841 ft | 402 kts | 337° |
| 2026-05-06 21:35 | 43.66943 | -74.34977 | 27835 ft | 395 kts | 327° |
| 2026-05-06 21:35 | 43.69303 | -74.36839 | 27852 ft | 387 kts | 317° |
| 2026-05-06 21:35 | 43.71346 | -74.39190 | 27857 ft | 379 kts | 307° |
| 2026-05-06 21:35 | 43.73045 | -74.41947 | 27852 ft | 375 kts | 298° |
| 2026-05-06 21:36 | 43.74349 | -74.44969 | 27848 ft | 369 kts | 289° |
| 2026-05-06 21:36 | 43.75275 | -74.48250 | 27849 ft | 365 kts | 281° |
| 2026-05-06 21:36 | 43.75796 | -74.51664 | 27852 ft | 362 kts | 272° |
| 2026-05-06 21:36 | 43.75910 | -74.55119 | 27851 ft | 359 kts | 265° |
| 2026-05-06 21:37 | 43.75839 | -74.58573 | 27850 ft | 360 kts | 265° |
| 2026-05-06 21:37 | 43.75768 | -74.62037 | 27847 ft | 361 kts | 265° |
| 2026-05-06 21:37 | 43.75684 | -74.65501 | 27850 ft | 360 kts | 265° |
| 2026-05-06 21:37 | 43.75598 | -74.68965 | 27854 ft | 360 kts | 265° |
| 2026-05-06 21:38 | 43.75515 | -74.72416 | 27858 ft | 360 kts | 265° |
| 2026-05-06 21:38 | 43.75432 | -74.75824 | 27857 ft | 359 kts | 265° |
| 2026-05-06 21:38 | 43.75347 | -74.79277 | 27856 ft | 359 kts | 265° |
| 2026-05-06 21:38 | 43.75260 | -74.82734 | 27850 ft | 360 kts | 265° |
| 2026-05-06 21:39 | 43.75172 | -74.86191 | 27844 ft | 360 kts | 265° |
| 2026-05-06 21:39 | 43.75083 | -74.89654 | 27853 ft | 361 kts | 265° |
| 2026-05-06 21:39 | 43.74993 | -74.93126 | 27848 ft | 361 kts | 265° |
| 2026-05-06 21:39 | 43.74902 | -74.96588 | 27844 ft | 360 kts | 265° |
| 2026-05-06 21:40 | 43.74810 | -75.00054 | 27851 ft | 360 kts | 265° |
| 2026-05-06 21:40 | 43.74718 | -75.03464 | 27844 ft | 361 kts | 265° |
| 2026-05-06 21:40 | 43.74623 | -75.06935 | 27878 ft | 361 kts | 265° |
| 2026-05-06 21:40 | 43.74529 | -75.10379 | 27847 ft | 357 kts | 265° |
| 2026-05-06 21:41 | 43.74434 | -75.13809 | 27841 ft | 357 kts | 265° |
| 2026-05-06 21:41 | 43.74337 | -75.17241 | 27842 ft | 357 kts | 265° |
| 2026-05-06 21:41 | 43.74240 | -75.20671 | 27844 ft | 357 kts | 265° |
| 2026-05-06 21:41 | 43.74141 | -75.24100 | 27842 ft | 357 kts | 265° |
| 2026-05-06 21:42 | 43.74042 | -75.27524 | 27843 ft | 356 kts | 265° |
| 2026-05-06 21:42 | 43.73943 | -75.30905 | 27846 ft | 356 kts | 265° |
| 2026-05-06 21:42 | 43.73842 | -75.34328 | 27844 ft | 356 kts | 265° |
| 2026-05-06 21:42 | 43.73740 | -75.37743 | 27847 ft | 356 kts | 265° |
| 2026-05-06 21:43 | 43.73636 | -75.41165 | 27848 ft | 356 kts | 265° |
| 2026-05-06 21:43 | 43.73532 | -75.44587 | 27853 ft | 357 kts | 265° |
| 2026-05-06 21:43 | 43.73426 | -75.48015 | 27857 ft | 357 kts | 265° |
| 2026-05-06 21:43 | 43.73320 | -75.51438 | 27858 ft | 357 kts | 265° |
| 2026-05-06 21:44 | 43.73214 | -75.54822 | 27862 ft | 357 kts | 265° |
| 2026-05-06 21:44 | 43.73105 | -75.58249 | 27858 ft | 357 kts | 265° |
| 2026-05-06 21:44 | 43.72860 | -75.61658 | 27860 ft | 355 kts | 258° |
| 2026-05-06 21:44 | 43.72230 | -75.64955 | 27863 ft | 355 kts | 250° |
| 2026-05-06 21:45 | 43.71230 | -75.68073 | 27865 ft | 356 kts | 242° |
| 2026-05-06 21:45 | 43.69881 | -75.70936 | 27853 ft | 356 kts | 234° |
| 2026-05-06 21:45 | 43.68213 | -75.73473 | 27862 ft | 359 kts | 226° |
| 2026-05-06 21:45 | 43.66245 | -75.75633 | 27862 ft | 364 kts | 218° |
| 2026-05-06 21:46 | 43.64022 | -75.77338 | 27864 ft | 368 kts | 209° |
| 2026-05-06 21:46 | 43.61594 | -75.78528 | 27893 ft | 374 kts | 200° |
| 2026-05-06 21:46 | 43.59050 | -75.79142 | 27869 ft | 379 kts | 191° |
| 2026-05-06 21:46 | 43.56401 | -75.79157 | 27870 ft | 386 kts | 182° |
| 2026-05-06 21:47 | 43.53733 | -75.78526 | 27870 ft | 393 kts | 172° |
| 2026-05-06 21:47 | 43.51136 | -75.77231 | 27857 ft | 402 kts | 162° |
| 2026-05-06 21:47 | 43.48692 | -75.75266 | 27873 ft | 412 kts | 152° |
| 2026-05-06 21:47 | 43.46512 | -75.72669 | 27858 ft | 419 kts | 141° |
| 2026-05-06 21:48 | 43.44691 | -75.69498 | 27880 ft | 427 kts | 129° |
| 2026-05-06 21:48 | 43.43316 | -75.65842 | 27861 ft | 434 kts | 117° |
| 2026-05-06 21:48 | 43.42471 | -75.61835 | 27882 ft | 441 kts | 104° |
| 2026-05-06 21:48 | 43.42208 | -75.57672 | 27871 ft | 446 kts | 92° |
| 2026-05-06 21:49 | 43.42292 | -75.53398 | 27878 ft | 447 kts | 90° |
| 2026-05-06 21:49 | 43.42442 | -75.49128 | 27867 ft | 447 kts | 90° |
| 2026-05-06 21:49 | 43.42601 | -75.44859 | 27867 ft | 447 kts | 90° |
| 2026-05-06 21:49 | 43.42728 | -75.40592 | 27868 ft | 445 kts | 90° |
| 2026-05-06 21:50 | 43.42841 | -75.36339 | 27871 ft | 445 kts | 90° |
| 2026-05-06 21:50 | 43.42968 | -75.32089 | 27860 ft | 445 kts | 90° |
| 2026-05-06 21:50 | 43.43101 | -75.27833 | 27863 ft | 446 kts | 90° |
| 2026-05-06 21:50 | 43.43227 | -75.23563 | 27863 ft | 446 kts | 90° |
| 2026-05-06 21:51 | 43.43344 | -75.19362 | 27860 ft | 446 kts | 90° |
| 2026-05-06 21:51 | 43.43463 | -75.15105 | 27851 ft | 445 kts | 90° |
| 2026-05-06 21:51 | 43.43584 | -75.10854 | 27853 ft | 445 kts | 90° |
| 2026-05-06 21:51 | 43.43703 | -75.06597 | 27845 ft | 444 kts | 90° |
| 2026-05-06 21:52 | 43.43818 | -75.02367 | 27843 ft | 442 kts | 91° |
| 2026-05-06 21:52 | 43.43931 | -74.98139 | 27834 ft | 441 kts | 91° |
| 2026-05-06 21:52 | 43.44042 | -74.93917 | 27839 ft | 442 kts | 91° |
| 2026-05-06 21:52 | 43.44153 | -74.89690 | 27835 ft | 442 kts | 91° |
| 2026-05-06 21:53 | 43.44262 | -74.85454 | 27843 ft | 443 kts | 91° |
| 2026-05-06 21:53 | 43.44370 | -74.81214 | 27835 ft | 443 kts | 91° |
| 2026-05-06 21:53 | 43.44475 | -74.77042 | 27830 ft | 443 kts | 91° |
| 2026-05-06 21:53 | 43.44579 | -74.72805 | 27831 ft | 443 kts | 91° |
| 2026-05-06 21:54 | 43.44682 | -74.68566 | 27840 ft | 443 kts | 91° |
| 2026-05-06 21:54 | 43.44783 | -74.64338 | 27838 ft | 443 kts | 91° |
| 2026-05-06 21:54 | 43.44883 | -74.60103 | 27828 ft | 442 kts | 91° |
| 2026-05-06 21:54 | 43.44981 | -74.55875 | 27829 ft | 442 kts | 91° |
| 2026-05-06 21:55 | 43.45146 | -74.51658 | 27829 ft | 444 kts | 84° |
| 2026-05-06 21:55 | 43.45847 | -74.47510 | 27830 ft | 446 kts | 71° |
| 2026-05-06 21:55 | 43.47132 | -74.43627 | 27830 ft | 446 kts | 58° |
| 2026-05-06 21:55 | 43.48916 | -74.40228 | 27829 ft | 443 kts | 45° |
| 2026-05-06 21:56 | 43.51160 | -74.37361 | 27828 ft | 438 kts | 32° |
| 2026-05-06 21:56 | 43.53734 | -74.35182 | 27836 ft | 431 kts | 20° |
| 2026-05-06 21:56 | 43.56524 | -74.33748 | 27836 ft | 425 kts | 8° |
| 2026-05-06 21:56 | 43.59406 | -74.33081 | 27825 ft | 416 kts | 356° |
| 2026-05-06 21:57 | 43.62272 | -74.33169 | 27839 ft | 409 kts | 345° |
| 2026-05-06 21:57 | 43.65029 | -74.33967 | 27839 ft | 401 kts | 335° |
| 2026-05-06 21:57 | 43.67589 | -74.35412 | 27839 ft | 394 kts | 324° |
| 2026-05-06 21:57 | 43.69847 | -74.37388 | 27851 ft | 386 kts | 314° |
| 2026-05-06 21:58 | 43.71808 | -74.39847 | 27853 ft | 379 kts | 305° |
| 2026-05-06 21:58 | 43.73418 | -74.42704 | 27846 ft | 374 kts | 296° |
| 2026-05-06 21:58 | 43.74639 | -74.45839 | 27847 ft | 369 kts | 287° |
| 2026-05-06 21:58 | 43.75459 | -74.49181 | 27853 ft | 365 kts | 279° |
| 2026-05-06 21:59 | 43.75868 | -74.52621 | 27854 ft | 362 kts | 270° |
| 2026-05-06 21:59 | 43.75889 | -74.56091 | 27845 ft | 361 kts | 265° |
| 2026-05-06 21:59 | 43.75820 | -74.59557 | 27853 ft | 361 kts | 265° |
| 2026-05-06 21:59 | 43.75746 | -74.62978 | 27859 ft | 361 kts | 265° |
| 2026-05-06 22:00 | 43.75661 | -74.66451 | 27862 ft | 361 kts | 265° |
| 2026-05-06 22:00 | 43.75574 | -74.69929 | 27863 ft | 361 kts | 265° |
| 2026-05-06 22:00 | 43.75491 | -74.73397 | 27859 ft | 360 kts | 265° |
| 2026-05-06 22:00 | 43.75411 | -74.76801 | 27858 ft | 348 kts | 265° |
| 2026-05-06 22:01 | 43.75329 | -74.80099 | 27850 ft | 338 kts | 265° |
| 2026-05-06 22:01 | 43.75247 | -74.83304 | 27705 ft | 332 kts | 265° |
| 2026-05-06 22:01 | 43.75164 | -74.86496 | 27297 ft | 333 kts | 265° |
| 2026-05-06 22:01 | 43.75080 | -74.89704 | 26890 ft | 335 kts | 264° |
| 2026-05-06 22:02 | 43.74999 | -74.92886 | 26503 ft | 336 kts | 264° |
| 2026-05-06 22:02 | 43.74915 | -74.96122 | 26073 ft | 338 kts | 264° |
| 2026-05-06 22:02 | 43.74828 | -74.99379 | 25847 ft | 339 kts | 264° |
| 2026-05-06 22:02 | 43.74738 | -75.02683 | 25852 ft | 348 kts | 264° |
| 2026-05-06 22:03 | 43.74647 | -75.06039 | 25870 ft | 350 kts | 264° |
| 2026-05-06 22:03 | 43.74556 | -75.09404 | 25851 ft | 350 kts | 264° |
| 2026-05-06 22:03 | 43.74464 | -75.12768 | 25853 ft | 350 kts | 264° |
| 2026-05-06 22:03 | 43.74368 | -75.16133 | 25845 ft | 351 kts | 264° |
| 2026-05-06 22:04 | 43.74274 | -75.19461 | 25852 ft | 351 kts | 264° |
| 2026-05-06 22:04 | 43.74178 | -75.22828 | 25845 ft | 351 kts | 264° |
| 2026-05-06 22:04 | 43.74081 | -75.26205 | 25846 ft | 351 kts | 264° |
| 2026-05-06 22:04 | 43.73982 | -75.29572 | 25847 ft | 350 kts | 264° |
| 2026-05-06 22:05 | 43.73883 | -75.32938 | 25855 ft | 350 kts | 264° |
| 2026-05-06 22:05 | 43.73783 | -75.36300 | 25855 ft | 350 kts | 264° |
| 2026-05-06 22:05 | 43.73682 | -75.39664 | 25857 ft | 350 kts | 264° |
| 2026-05-06 22:05 | 43.73580 | -75.43030 | 25876 ft | 350 kts | 264° |
| 2026-05-06 22:06 | 43.73477 | -75.46394 | 25854 ft | 350 kts | 264° |
| 2026-05-06 22:06 | 43.73374 | -75.49714 | 25852 ft | 351 kts | 264° |
| 2026-05-06 22:06 | 43.73268 | -75.53087 | 25858 ft | 351 kts | 264° |
| 2026-05-06 22:06 | 43.73162 | -75.56459 | 25857 ft | 352 kts | 264° |
| 2026-05-06 22:07 | 43.73038 | -75.59835 | 25861 ft | 351 kts | 261° |
| 2026-05-06 22:07 | 43.72627 | -75.63142 | 25863 ft | 349 kts | 253° |
| 2026-05-06 22:07 | 43.71850 | -75.66308 | 25864 ft | 348 kts | 245° |
| 2026-05-06 22:07 | 43.70725 | -75.69267 | 25851 ft | 348 kts | 238° |
| 2026-05-06 22:08 | 43.69302 | -75.71914 | 25858 ft | 348 kts | 230° |
| 2026-05-06 22:08 | 43.67574 | -75.74256 | 25866 ft | 350 kts | 222° |
| 2026-05-06 22:08 | 43.65583 | -75.76212 | 25865 ft | 353 kts | 214° |
| 2026-05-06 22:08 | 43.63371 | -75.77721 | 25864 ft | 357 kts | 206° |
| 2026-05-06 22:09 | 43.60991 | -75.78730 | 25882 ft | 361 kts | 198° |
| 2026-05-06 22:09 | 43.58492 | -75.79198 | 25867 ft | 364 kts | 189° |
| 2026-05-06 22:09 | 43.55940 | -75.79096 | 25877 ft | 370 kts | 180° |
| 2026-05-06 22:09 | 43.53396 | -75.78399 | 25840 ft | 377 kts | 171° |
| 2026-05-06 22:10 | 43.50949 | -75.77112 | 25858 ft | 388 kts | 161° |
| 2026-05-06 22:10 | 43.48607 | -75.75185 | 25865 ft | 395 kts | 151° |
| 2026-05-06 22:10 | 43.46526 | -75.72690 | 25877 ft | 401 kts | 141° |
| 2026-05-06 22:10 | 43.44769 | -75.69665 | 25869 ft | 408 kts | 129° |
| 2026-05-06 22:11 | 43.43425 | -75.66208 | 25882 ft | 414 kts | 118° |
| 2026-05-06 22:11 | 43.42552 | -75.62403 | 25882 ft | 421 kts | 107° |
| 2026-05-06 22:11 | 43.42209 | -75.58383 | 25886 ft | 427 kts | 94° |
| 2026-05-06 22:11 | 43.42271 | -75.54299 | 25879 ft | 428 kts | 91° |
| 2026-05-06 22:12 | 43.42404 | -75.50200 | 25887 ft | 428 kts | 90° |
| 2026-05-06 22:12 | 43.42556 | -75.46163 | 25883 ft | 427 kts | 90° |
| 2026-05-06 22:12 | 43.42683 | -75.42091 | 25853 ft | 427 kts | 91° |
| 2026-05-06 22:12 | 43.42793 | -75.38025 | 25767 ft | 423 kts | 91° |
| 2026-05-06 22:13 | 43.42912 | -75.33972 | 25407 ft | 425 kts | 90° |
| 2026-05-06 22:13 | 43.43038 | -75.29911 | 25093 ft | 424 kts | 91° |
| 2026-05-06 22:13 | 43.43160 | -75.25857 | 24769 ft | 424 kts | 91° |
| 2026-05-06 22:13 | 43.43275 | -75.21808 | 24450 ft | 424 kts | 91° |
| 2026-05-06 22:14 | 43.43388 | -75.17762 | 24136 ft | 423 kts | 91° |
| 2026-05-06 22:14 | 43.43504 | -75.13710 | 23818 ft | 423 kts | 91° |
| 2026-05-06 22:14 | 43.43618 | -75.09663 | 23462 ft | 424 kts | 91° |
| 2026-05-06 22:14 | 43.43727 | -75.05671 | 23135 ft | 422 kts | 91° |
| 2026-05-06 22:15 | 43.43837 | -75.01631 | 22794 ft | 422 kts | 91° |
| 2026-05-06 22:15 | 43.43945 | -74.97618 | 22507 ft | 420 kts | 91° |
| 2026-05-06 22:15 | 43.44051 | -74.93618 | 22217 ft | 418 kts | 91° |
| 2026-05-06 22:15 | 43.44155 | -74.89621 | 21926 ft | 416 kts | 91° |
| 2026-05-06 22:16 | 43.44258 | -74.85659 | 21846 ft | 412 kts | 91° |
| 2026-05-06 22:16 | 43.44357 | -74.81711 | 21841 ft | 414 kts | 92° |
| 2026-05-06 22:16 | 43.44452 | -74.77907 | 21836 ft | 414 kts | 92° |
| 2026-05-06 22:16 | 43.44555 | -74.73796 | 21842 ft | 415 kts | 92° |
| 2026-05-06 22:17 | 43.44652 | -74.69828 | 21840 ft | 415 kts | 92° |
| 2026-05-06 22:17 | 43.44745 | -74.65910 | 21844 ft | 416 kts | 92° |
| 2026-05-06 22:17 | 43.44839 | -74.61941 | 21835 ft | 416 kts | 92° |
| 2026-05-06 22:17 | 43.44933 | -74.57958 | 21836 ft | 416 kts | 92° |
| 2026-05-06 22:18 | 43.45025 | -74.53986 | 21833 ft | 416 kts | 91° |
| 2026-05-06 22:18 | 43.45348 | -74.50018 | 21836 ft | 420 kts | 80° |
| 2026-05-06 22:18 | 43.46216 | -74.46166 | 21830 ft | 423 kts | 68° |
| 2026-05-06 22:18 | 43.47596 | -74.42601 | 21833 ft | 423 kts | 56° |
| 2026-05-06 22:19 | 43.49440 | -74.39452 | 21849 ft | 422 kts | 44° |
| 2026-05-06 22:19 | 43.51673 | -74.36847 | 21828 ft | 419 kts | 31° |
| 2026-05-06 22:19 | 43.54197 | -74.34883 | 21844 ft | 415 kts | 19° |
| 2026-05-06 22:19 | 43.56869 | -74.33626 | 21844 ft | 409 kts | 8° |
| 2026-05-06 22:20 | 43.59661 | -74.33059 | 21843 ft | 401 kts | 356° |
| 2026-05-06 22:20 | 43.62418 | -74.33193 | 21851 ft | 394 kts | 346° |
| 2026-05-06 22:20 | 43.65066 | -74.33982 | 21848 ft | 385 kts | 335° |
| 2026-05-06 22:20 | 43.67518 | -74.35359 | 21831 ft | 377 kts | 325° |
| 2026-05-06 22:21 | 43.69715 | -74.37248 | 21853 ft | 369 kts | 315° |
| 2026-05-06 22:21 | 43.71617 | -74.39566 | 21847 ft | 361 kts | 306° |
| 2026-05-06 22:21 | 43.73188 | -74.42223 | 21849 ft | 354 kts | 297° |
| 2026-05-06 22:21 | 43.74395 | -74.45097 | 21851 ft | 348 kts | 289° |
| 2026-05-06 22:22 | 43.75264 | -74.48185 | 21846 ft | 342 kts | 281° |
| 2026-05-06 22:22 | 43.75770 | -74.51369 | 21857 ft | 338 kts | 273° |
| 2026-05-06 22:22 | 43.75920 | -74.54593 | 21850 ft | 334 kts | 265° |
| 2026-05-06 22:22 | 43.75853 | -74.57801 | 21849 ft | 334 kts | 264° |
| 2026-05-06 22:23 | 43.75789 | -74.61012 | 21856 ft | 334 kts | 264° |
| 2026-05-06 22:23 | 43.75716 | -74.64218 | 21858 ft | 334 kts | 264° |
| 2026-05-06 22:23 | 43.75636 | -74.67429 | 21855 ft | 334 kts | 264° |
| 2026-05-06 22:23 | 43.75557 | -74.70634 | 21854 ft | 334 kts | 264° |
| 2026-05-06 22:24 | 43.75482 | -74.73797 | 21861 ft | 334 kts | 264° |
| 2026-05-06 22:24 | 43.75403 | -74.77006 | 21855 ft | 334 kts | 264° |
| 2026-05-06 22:24 | 43.75323 | -74.80211 | 21861 ft | 334 kts | 264° |
| 2026-05-06 22:24 | 43.75242 | -74.83416 | 21849 ft | 334 kts | 264° |
| 2026-05-06 22:25 | 43.75161 | -74.86626 | 21853 ft | 334 kts | 264° |
| 2026-05-06 22:25 | 43.75078 | -74.89836 | 21853 ft | 334 kts | 264° |
| 2026-05-06 22:25 | 43.74995 | -74.93042 | 21852 ft | 334 kts | 264° |
| 2026-05-06 22:25 | 43.74911 | -74.96246 | 21853 ft | 334 kts | 264° |
| 2026-05-06 22:26 | 43.74825 | -74.99458 | 21856 ft | 334 kts | 264° |
| 2026-05-06 22:26 | 43.74741 | -75.02621 | 21857 ft | 334 kts | 264° |
| 2026-05-06 22:26 | 43.74654 | -75.05832 | 21866 ft | 334 kts | 264° |
| 2026-05-06 22:26 | 43.74565 | -75.09053 | 21857 ft | 336 kts | 264° |
| 2026-05-06 22:27 | 43.74476 | -75.12280 | 21860 ft | 335 kts | 264° |
| 2026-05-06 22:27 | 43.74386 | -75.15501 | 21852 ft | 335 kts | 264° |
| 2026-05-06 22:27 | 43.74295 | -75.18724 | 21857 ft | 335 kts | 264° |
| 2026-05-06 22:27 | 43.74203 | -75.21946 | 21857 ft | 335 kts | 263° |
| 2026-05-06 22:28 | 43.74110 | -75.25166 | 21855 ft | 335 kts | 263° |
| 2026-05-06 22:28 | 43.74017 | -75.28386 | 21855 ft | 335 kts | 263° |
| 2026-05-06 22:28 | 43.73922 | -75.31607 | 21853 ft | 335 kts | 263° |
| 2026-05-06 22:28 | 43.73828 | -75.34790 | 21856 ft | 336 kts | 263° |
| 2026-05-06 22:29 | 43.73731 | -75.38012 | 21861 ft | 336 kts | 263° |
| 2026-05-06 22:29 | 43.73634 | -75.41239 | 21856 ft | 336 kts | 263° |
| 2026-05-06 22:29 | 43.73536 | -75.44462 | 21857 ft | 336 kts | 263° |
| 2026-05-06 22:29 | 43.73437 | -75.47678 | 21859 ft | 334 kts | 263° |
| 2026-05-06 22:30 | 43.73337 | -75.50884 | 21865 ft | 334 kts | 263° |
| 2026-05-06 22:30 | 43.73236 | -75.54097 | 21859 ft | 334 kts | 263° |
| 2026-05-06 22:30 | 43.73136 | -75.57260 | 21868 ft | 334 kts | 263° |
| 2026-05-06 22:30 | 43.72991 | -75.60467 | 21866 ft | 333 kts | 258° |
| 2026-05-06 22:31 | 43.72543 | -75.63582 | 21876 ft | 330 kts | 251° |
| 2026-05-06 22:31 | 43.71773 | -75.66552 | 21882 ft | 328 kts | 244° |
| 2026-05-06 22:31 | 43.70698 | -75.69328 | 21865 ft | 326 kts | 236° |
| 2026-05-06 22:31 | 43.69350 | -75.71838 | 21866 ft | 325 kts | 229° |
| 2026-05-06 22:32 | 43.67753 | -75.74047 | 21874 ft | 325 kts | 222° |
| 2026-05-06 22:32 | 43.65937 | -75.75913 | 21882 ft | 327 kts | 214° |
| 2026-05-06 22:32 | 43.63930 | -75.77398 | 21878 ft | 330 kts | 207° |
| 2026-05-06 22:32 | 43.61783 | -75.78460 | 21907 ft | 334 kts | 199° |
| 2026-05-06 22:33 | 43.59484 | -75.79082 | 21887 ft | 335 kts | 192° |
| 2026-05-06 22:33 | 43.57153 | -75.79219 | 21882 ft | 339 kts | 184° |
| 2026-05-06 22:33 | 43.54787 | -75.78858 | 21886 ft | 346 kts | 176° |
| 2026-05-06 22:33 | 43.52437 | -75.77975 | 21840 ft | 358 kts | 167° |
| 2026-05-06 22:34 | 43.50127 | -75.76525 | 21872 ft | 370 kts | 158° |
| 2026-05-06 22:34 | 43.47978 | -75.74525 | 21881 ft | 376 kts | 148° |
| 2026-05-06 22:34 | 43.46092 | -75.72046 | 21885 ft | 385 kts | 138° |
| 2026-05-06 22:34 | 43.44488 | -75.69062 | 21883 ft | 393 kts | 128° |
| 2026-05-06 22:35 | 43.43263 | -75.65663 | 21889 ft | 401 kts | 117° |
| 2026-05-06 22:35 | 43.42483 | -75.61943 | 21887 ft | 409 kts | 105° |
| 2026-05-06 22:35 | 43.42206 | -75.58028 | 21892 ft | 414 kts | 94° |
| 2026-05-06 22:35 | 43.42281 | -75.54071 | 21890 ft | 415 kts | 91° |
| 2026-05-06 22:36 | 43.42412 | -75.50095 | 21889 ft | 416 kts | 91° |
| 2026-05-06 22:36 | 43.42556 | -75.46122 | 21887 ft | 416 kts | 91° |
| 2026-05-06 22:36 | 43.42677 | -75.42189 | 21861 ft | 416 kts | 91° |
| 2026-05-06 22:36 | 43.42788 | -75.38224 | 21875 ft | 415 kts | 91° |
| 2026-05-06 22:37 | 43.42905 | -75.34255 | 21867 ft | 415 kts | 91° |
| 2026-05-06 22:37 | 43.43027 | -75.30291 | 21869 ft | 415 kts | 91° |
| 2026-05-06 22:37 | 43.43145 | -75.26321 | 21871 ft | 415 kts | 91° |
| 2026-05-06 22:37 | 43.43258 | -75.22356 | 21866 ft | 415 kts | 91° |
| 2026-05-06 22:38 | 43.43371 | -75.18402 | 21866 ft | 414 kts | 91° |
| 2026-05-06 22:38 | 43.43483 | -75.14441 | 21858 ft | 414 kts | 91° |
| 2026-05-06 22:38 | 43.43593 | -75.10540 | 21860 ft | 414 kts | 91° |
| 2026-05-06 22:38 | 43.43702 | -75.06574 | 21845 ft | 414 kts | 91° |
| 2026-05-06 22:39 | 43.43810 | -75.02612 | 21845 ft | 415 kts | 91° |
| 2026-05-06 22:39 | 43.43917 | -74.98647 | 21842 ft | 415 kts | 91° |
| 2026-05-06 22:39 | 43.44022 | -74.94684 | 21846 ft | 415 kts | 91° |
| 2026-05-06 22:39 | 43.44126 | -74.90717 | 21842 ft | 415 kts | 91° |
| 2026-05-06 22:40 | 43.44229 | -74.86747 | 21874 ft | 419 kts | 91° |
| 2026-05-06 22:40 | 43.44329 | -74.82805 | 23214 ft | 416 kts | 91° |
| 2026-05-06 22:40 | 43.44430 | -74.78783 | 24201 ft | 425 kts | 91° |
| 2026-05-06 22:40 | 43.44530 | -74.74684 | 25107 ft | 432 kts | 91° |
| 2026-05-06 22:41 | 43.44736 | -74.66286 | 26877 ft | 446 kts | 91° |
| 2026-05-06 22:41 | 43.44838 | -74.61990 | 27674 ft | 455 kts | 91° |
| 2026-05-06 22:41 | 43.44939 | -74.57574 | 27838 ft | 465 kts | 91° |
| 2026-05-06 22:42 | 43.45051 | -74.53151 | 27824 ft | 460 kts | 89° |
| 2026-05-06 22:42 | 43.45563 | -74.48797 | 27838 ft | 462 kts | 75° |
| 2026-05-06 22:42 | 43.46700 | -74.44728 | 27842 ft | 463 kts | 62° |
| 2026-05-06 22:42 | 43.48435 | -74.41021 | 27848 ft | 461 kts | 49° |
| 2026-05-06 22:43 | 43.50681 | -74.37889 | 27846 ft | 457 kts | 35° |
| 2026-05-06 22:43 | 43.53306 | -74.35485 | 27805 ft | 450 kts | 22° |
| 2026-05-06 22:43 | 43.56180 | -74.33885 | 27844 ft | 443 kts | 10° |
| 2026-05-06 22:43 | 43.59175 | -74.33112 | 27839 ft | 434 kts | 358° |
| 2026-05-06 22:44 | 43.62162 | -74.33157 | 27846 ft | 424 kts | 346° |
| 2026-05-06 22:44 | 43.65009 | -74.33963 | 27846 ft | 414 kts | 335° |
| 2026-05-06 22:44 | 43.67601 | -74.35424 | 27841 ft | 403 kts | 324° |
| 2026-05-06 22:44 | 43.69933 | -74.37482 | 27853 ft | 393 kts | 314° |
| 2026-05-06 22:45 | 43.71914 | -74.40012 | 27855 ft | 383 kts | 304° |
| 2026-05-06 22:45 | 43.73515 | -74.42914 | 27848 ft | 377 kts | 295° |
| 2026-05-06 22:45 | 43.74717 | -74.46095 | 27849 ft | 371 kts | 287° |
| 2026-05-06 22:45 | 43.75507 | -74.49459 | 27855 ft | 365 kts | 278° |
| 2026-05-06 22:46 | 43.75883 | -74.52918 | 27858 ft | 361 kts | 270° |
| 2026-05-06 22:46 | 43.75882 | -74.56375 | 27858 ft | 359 kts | 265° |
| 2026-05-06 22:46 | 43.75815 | -74.59818 | 27851 ft | 359 kts | 265° |
| 2026-05-06 22:46 | 43.75740 | -74.63271 | 27847 ft | 359 kts | 265° |
| 2026-05-06 22:47 | 43.75654 | -74.66715 | 27861 ft | 359 kts | 265° |
| 2026-05-06 22:47 | 43.75570 | -74.70118 | 27864 ft | 359 kts | 265° |
| 2026-05-06 22:47 | 43.75487 | -74.73575 | 27863 ft | 359 kts | 265° |
| 2026-05-06 22:47 | 43.75403 | -74.77024 | 27863 ft | 359 kts | 265° |
| 2026-05-06 22:48 | 43.75318 | -74.80471 | 27863 ft | 359 kts | 265° |
| 2026-05-06 22:48 | 43.75230 | -74.83915 | 27860 ft | 358 kts | 265° |
| 2026-05-06 22:48 | 43.75142 | -74.87357 | 27862 ft | 358 kts | 265° |
| 2026-05-06 22:48 | 43.75054 | -74.90798 | 27859 ft | 357 kts | 265° |
| 2026-05-06 22:49 | 43.74964 | -74.94232 | 27852 ft | 358 kts | 265° |
| 2026-05-06 22:49 | 43.74874 | -74.97627 | 27857 ft | 358 kts | 265° |
| 2026-05-06 22:49 | 43.74783 | -75.01070 | 27863 ft | 359 kts | 265° |
| 2026-05-06 22:49 | 43.74689 | -75.04521 | 27861 ft | 359 kts | 265° |
| 2026-05-06 22:50 | 43.74595 | -75.07968 | 27864 ft | 358 kts | 265° |
| 2026-05-06 22:50 | 43.74502 | -75.11378 | 27860 ft | 354 kts | 265° |
| 2026-05-06 22:50 | 43.74407 | -75.14781 | 27862 ft | 354 kts | 265° |
| 2026-05-06 22:50 | 43.74310 | -75.18187 | 27861 ft | 354 kts | 265° |
| 2026-05-06 22:51 | 43.74213 | -75.21593 | 27869 ft | 354 kts | 265° |
| 2026-05-06 22:51 | 43.74117 | -75.24950 | 27868 ft | 354 kts | 265° |
| 2026-05-06 22:51 | 43.74018 | -75.28356 | 27868 ft | 354 kts | 265° |
| 2026-05-06 22:51 | 43.73918 | -75.31756 | 27869 ft | 354 kts | 265° |
| 2026-05-06 22:52 | 43.73817 | -75.35160 | 27866 ft | 354 kts | 265° |
| 2026-05-06 22:52 | 43.73715 | -75.38559 | 27870 ft | 354 kts | 265° |
| 2026-05-06 22:52 | 43.73612 | -75.41957 | 27870 ft | 354 kts | 265° |
| 2026-05-06 22:52 | 43.73508 | -75.45360 | 27872 ft | 355 kts | 265° |
| 2026-05-06 22:53 | 43.73403 | -75.48765 | 27872 ft | 354 kts | 265° |
| 2026-05-06 22:53 | 43.73297 | -75.52167 | 27877 ft | 354 kts | 265° |
| 2026-05-06 22:53 | 43.73191 | -75.55529 | 27878 ft | 355 kts | 265° |
| 2026-05-06 22:53 | 43.73082 | -75.58938 | 27878 ft | 356 kts | 264° |
| 2026-05-06 22:54 | 43.72766 | -75.62320 | 27885 ft | 354 kts | 256° |
| 2026-05-06 22:54 | 43.72065 | -75.65577 | 27890 ft | 354 kts | 248° |
| 2026-05-06 22:54 | 43.71001 | -75.68636 | 27866 ft | 353 kts | 240° |
| 2026-05-06 22:54 | 43.69601 | -75.71423 | 27886 ft | 354 kts | 232° |
| 2026-05-06 22:55 | 43.67890 | -75.73879 | 27891 ft | 357 kts | 224° |
| 2026-05-06 22:55 | 43.65896 | -75.75946 | 27888 ft | 361 kts | 216° |
| 2026-05-06 22:55 | 43.63652 | -75.77562 | 27890 ft | 367 kts | 208° |
| 2026-05-06 22:55 | 43.61241 | -75.78651 | 27916 ft | 374 kts | 199° |
| 2026-05-06 22:56 | 43.58652 | -75.79185 | 27900 ft | 380 kts | 189° |
| 2026-05-06 22:56 | 43.55985 | -75.79102 | 27905 ft | 388 kts | 180° |
| 2026-05-06 22:56 | 43.53312 | -75.78365 | 27857 ft | 398 kts | 171° |
| 2026-05-06 22:56 | 43.50706 | -75.76944 | 27881 ft | 409 kts | 161° |
| 2026-05-06 22:57 | 43.48267 | -75.74832 | 27903 ft | 420 kts | 149° |
| 2026-05-06 22:57 | 43.46103 | -75.72058 | 27886 ft | 431 kts | 138° |
| 2026-05-06 22:57 | 43.44328 | -75.68684 | 27908 ft | 441 kts | 126° |
| 2026-05-06 22:57 | 43.43039 | -75.64806 | 27907 ft | 451 kts | 113° |
| 2026-05-06 22:58 | 43.42330 | -75.60578 | 27883 ft | 458 kts | 100° |
| 2026-05-06 22:58 | 43.42228 | -75.56182 | 27891 ft | 462 kts | 91° |
| 2026-05-06 22:58 | 43.42336 | -75.51763 | 27899 ft | 463 kts | 90° |
| 2026-05-06 22:58 | 43.42507 | -75.47400 | 27889 ft | 462 kts | 89° |
| 2026-05-06 22:59 | 43.42665 | -75.42994 | 27885 ft | 462 kts | 90° |
| 2026-05-06 22:59 | 43.42784 | -75.38588 | 27873 ft | 460 kts | 90° |
| 2026-05-06 22:59 | 43.42901 | -75.34187 | 27874 ft | 461 kts | 90° |
| 2026-05-06 22:59 | 43.43038 | -75.29779 | 27882 ft | 461 kts | 90° |
| 2026-05-06 23:00 | 43.43176 | -75.25362 | 27835 ft | 468 kts | 90° |
| 2026-05-06 23:00 | 43.43302 | -75.20908 | 27875 ft | 461 kts | 90° |
| 2026-05-06 23:00 | 43.43425 | -75.16511 | 27875 ft | 460 kts | 90° |
| 2026-05-06 23:00 | 43.43547 | -75.12110 | 27871 ft | 460 kts | 90° |
| 2026-05-06 23:01 | 43.43671 | -75.07710 | 27870 ft | 460 kts | 90° |
| 2026-05-06 23:01 | 43.43791 | -75.03376 | 27859 ft | 459 kts | 90° |
| 2026-05-06 23:01 | 43.43909 | -74.99000 | 27862 ft | 457 kts | 90° |
| 2026-05-06 23:01 | 43.44024 | -74.94620 | 27861 ft | 458 kts | 91° |
| 2026-05-06 23:02 | 43.44138 | -74.90235 | 27862 ft | 459 kts | 90° |
| 2026-05-06 23:02 | 43.44252 | -74.85843 | 27859 ft | 460 kts | 91° |
| 2026-05-06 23:02 | 43.44364 | -74.81447 | 27867 ft | 460 kts | 91° |
| 2026-05-06 23:02 | 43.44474 | -74.77059 | 27854 ft | 459 kts | 91° |
| 2026-05-06 23:03 | 43.44582 | -74.72675 | 27857 ft | 458 kts | 91° |
| 2026-05-06 23:03 | 43.44689 | -74.68291 | 27859 ft | 459 kts | 91° |
| 2026-05-06 23:03 | 43.44792 | -74.63964 | 27853 ft | 459 kts | 91° |
| 2026-05-06 23:03 | 43.44895 | -74.59570 | 27854 ft | 460 kts | 91° |
| 2026-05-06 23:04 | 43.44997 | -74.55175 | 27855 ft | 460 kts | 91° |
| 2026-05-06 23:04 | 43.45241 | -74.50788 | 27860 ft | 462 kts | 81° |
| 2026-05-06 23:04 | 43.46111 | -74.46527 | 27848 ft | 464 kts | 68° |
| 2026-05-06 23:04 | 43.47600 | -74.42597 | 27851 ft | 463 kts | 54° |
| 2026-05-06 23:05 | 43.49633 | -74.39191 | 27853 ft | 459 kts | 41° |
| 2026-05-06 23:05 | 43.52101 | -74.36458 | 27856 ft | 453 kts | 28° |
| 2026-05-06 23:05 | 43.54853 | -74.34509 | 27843 ft | 446 kts | 15° |
| 2026-05-06 23:05 | 43.57832 | -74.33354 | 27842 ft | 438 kts | 3° |
| 2026-05-06 23:06 | 43.60790 | -74.33037 | 27841 ft | 428 kts | 351° |
| 2026-05-06 23:06 | 43.63714 | -74.33501 | 27841 ft | 419 kts | 340° |
| 2026-05-06 23:06 | 43.66458 | -74.34686 | 27843 ft | 408 kts | 329° |
| 2026-05-06 23:06 | 43.68934 | -74.36500 | 27859 ft | 398 kts | 319° |
| 2026-05-06 23:07 | 43.71075 | -74.38833 | 27859 ft | 387 kts | 309° |
| 2026-05-06 23:07 | 43.72847 | -74.41576 | 27861 ft | 380 kts | 300° |
| 2026-05-06 23:07 | 43.74229 | -74.44645 | 27857 ft | 372 kts | 290° |
| 2026-05-06 23:07 | 43.75202 | -74.47926 | 27859 ft | 367 kts | 282° |
| 2026-05-06 23:08 | 43.75764 | -74.51335 | 27845 ft | 362 kts | 274° |
| 2026-05-06 23:08 | 43.75915 | -74.54739 | 27861 ft | 358 kts | 266° |
| 2026-05-06 23:08 | 43.75847 | -74.58177 | 27862 ft | 358 kts | 265° |
| 2026-05-06 23:08 | 43.75778 | -74.61619 | 27846 ft | 358 kts | 265° |
| 2026-05-06 23:09 | 43.75696 | -74.65056 | 27856 ft | 358 kts | 265° |
| 2026-05-06 23:09 | 43.75609 | -74.68494 | 27858 ft | 357 kts | 265° |
| 2026-05-06 23:09 | 43.75526 | -74.71923 | 27855 ft | 357 kts | 265° |
| 2026-05-06 23:09 | 43.75444 | -74.75350 | 27853 ft | 357 kts | 265° |
| 2026-05-06 23:10 | 43.75389 | -74.77620 | 27856 ft | 356 kts | 265° |
| 2026-05-06 23:10 | 43.75303 | -74.81040 | 27858 ft | 356 kts | 265° |
| 2026-05-06 23:10 | 43.75216 | -74.84466 | 27858 ft | 356 kts | 265° |
| 2026-05-06 23:10 | 43.75100 | -74.89008 | 27862 ft | 358 kts | 265° |
| 2026-05-06 23:11 | 43.75010 | -74.92454 | 27865 ft | 358 kts | 265° |
| 2026-05-06 23:11 | 43.74921 | -74.95894 | 27866 ft | 358 kts | 265° |
| 2026-05-06 23:11 | 43.74829 | -74.99334 | 27861 ft | 358 kts | 265° |
| 2026-05-06 23:11 | 43.74768 | -75.01608 | 27862 ft | 357 kts | 265° |
| 2026-05-06 23:12 | 43.74675 | -75.05045 | 27864 ft | 358 kts | 265° |
| 2026-05-06 23:12 | 43.74581 | -75.08478 | 27875 ft | 356 kts | 265° |
| 2026-05-06 23:12 | 43.74488 | -75.11890 | 27870 ft | 354 kts | 265° |
| 2026-05-06 23:12 | 43.74361 | -75.16399 | 27872 ft | 355 kts | 265° |
| 2026-05-06 23:13 | 43.74264 | -75.19813 | 27879 ft | 357 kts | 265° |
| 2026-05-06 23:13 | 43.74197 | -75.22139 | 27879 ft | 358 kts | 265° |
| 2026-05-06 23:13 | 43.74099 | -75.25579 | 27875 ft | 358 kts | 265° |
| 2026-05-06 23:13 | 43.74000 | -75.28968 | 27879 ft | 358 kts | 265° |
| 2026-05-06 23:14 | 43.73899 | -75.32406 | 27877 ft | 358 kts | 265° |
| 2026-05-06 23:14 | 43.73796 | -75.35855 | 27884 ft | 359 kts | 265° |
| 2026-05-06 23:14 | 43.73692 | -75.39307 | 27884 ft | 360 kts | 265° |
| 2026-05-06 23:14 | 43.73587 | -75.42774 | 27914 ft | 361 kts | 265° |
| 2026-05-06 23:15 | 43.73481 | -75.46245 | 27878 ft | 360 kts | 265° |
| 2026-05-06 23:15 | 43.73374 | -75.49701 | 27878 ft | 360 kts | 265° |
| 2026-05-06 23:15 | 43.73266 | -75.53154 | 27887 ft | 360 kts | 265° |
| 2026-05-06 23:15 | 43.73159 | -75.56552 | 27884 ft | 355 kts | 265° |
| 2026-05-06 23:16 | 43.73036 | -75.59896 | 27877 ft | 343 kts | 262° |
| 2026-05-06 23:16 | 43.72640 | -75.63092 | 27770 ft | 334 kts | 254° |
| 2026-05-06 23:16 | 43.71909 | -75.66133 | 27375 ft | 334 kts | 246° |
| 2026-05-06 23:16 | 43.70847 | -75.69003 | 26916 ft | 337 kts | 239° |
| 2026-05-06 23:17 | 43.69476 | -75.71634 | 26898 ft | 343 kts | 232° |
| 2026-05-06 23:17 | 43.67778 | -75.74018 | 26902 ft | 352 kts | 224° |
| 2026-05-06 23:17 | 43.65797 | -75.76034 | 26896 ft | 357 kts | 216° |
| 2026-05-06 23:17 | 43.63573 | -75.77608 | 26901 ft | 362 kts | 207° |
| 2026-05-06 23:18 | 43.61155 | -75.78679 | 26918 ft | 368 kts | 199° |
| 2026-05-06 23:18 | 43.58608 | -75.79189 | 26905 ft | 373 kts | 190° |
| 2026-05-06 23:18 | 43.55994 | -75.79103 | 26906 ft | 379 kts | 181° |
| 2026-05-06 23:18 | 43.53423 | -75.78408 | 26884 ft | 386 kts | 171° |
| 2026-05-06 23:19 | 43.50886 | -75.77067 | 26888 ft | 397 kts | 162° |
| 2026-05-06 23:19 | 43.48494 | -75.75069 | 26896 ft | 406 kts | 151° |
| 2026-05-06 23:19 | 43.46371 | -75.72463 | 26901 ft | 413 kts | 140° |
| 2026-05-06 23:19 | 43.44604 | -75.69310 | 26901 ft | 420 kts | 129° |
| 2026-05-06 23:20 | 43.43276 | -75.65700 | 26904 ft | 427 kts | 117° |
| 2026-05-06 23:20 | 43.42457 | -75.61735 | 26906 ft | 436 kts | 104° |
| 2026-05-06 23:20 | 43.42208 | -75.57626 | 26909 ft | 441 kts | 92° |
| 2026-05-06 23:20 | 43.42291 | -75.53400 | 26907 ft | 442 kts | 90° |
| 2026-05-06 23:21 | 43.42441 | -75.49164 | 26907 ft | 443 kts | 90° |
| 2026-05-06 23:21 | 43.42599 | -75.44939 | 26907 ft | 443 kts | 90° |
| 2026-05-06 23:21 | 43.42724 | -75.40710 | 26886 ft | 441 kts | 91° |
| 2026-05-06 23:21 | 43.42837 | -75.36497 | 26888 ft | 441 kts | 90° |
| 2026-05-06 23:22 | 43.42962 | -75.32277 | 26886 ft | 442 kts | 90° |
| 2026-05-06 23:22 | 43.43095 | -75.28055 | 26886 ft | 442 kts | 90° |
| 2026-05-06 23:22 | 43.43219 | -75.23833 | 26894 ft | 442 kts | 90° |
| 2026-05-06 23:22 | 43.43335 | -75.19670 | 26882 ft | 442 kts | 90° |
| 2026-05-06 23:23 | 43.43454 | -75.15443 | 26873 ft | 442 kts | 90° |
| 2026-05-06 23:23 | 43.43574 | -75.11220 | 26882 ft | 442 kts | 90° |
| 2026-05-06 23:23 | 43.43692 | -75.06998 | 26878 ft | 442 kts | 90° |
| 2026-05-06 23:23 | 43.43806 | -75.02793 | 26863 ft | 438 kts | 91° |
| 2026-05-06 23:24 | 43.43918 | -74.98618 | 26861 ft | 437 kts | 91° |
| 2026-05-06 23:24 | 43.44028 | -74.94435 | 26857 ft | 437 kts | 91° |
| 2026-05-06 23:24 | 43.44138 | -74.90256 | 26868 ft | 437 kts | 91° |
| 2026-05-06 23:24 | 43.44246 | -74.86080 | 26858 ft | 437 kts | 91° |
| 2026-05-06 23:25 | 43.44352 | -74.81955 | 26860 ft | 437 kts | 91° |
| 2026-05-06 23:25 | 43.44456 | -74.77776 | 26863 ft | 437 kts | 91° |
| 2026-05-06 23:25 | 43.44559 | -74.73594 | 26855 ft | 438 kts | 91° |
| 2026-05-06 23:25 | 43.44662 | -74.69400 | 26864 ft | 438 kts | 91° |
| 2026-05-06 23:26 | 43.44762 | -74.65213 | 26863 ft | 438 kts | 91° |
| 2026-05-06 23:26 | 43.44862 | -74.61022 | 26852 ft | 438 kts | 91° |
| 2026-05-06 23:26 | 43.44960 | -74.56831 | 26856 ft | 438 kts | 91° |
| 2026-05-06 23:26 | 43.44975 | -74.52711 | 26858 ft | 434 kts | 97° |
| 2026-05-06 23:27 | 43.44723 | -74.48575 | 26861 ft | 435 kts | 99° |
| 2026-05-06 23:27 | 43.44429 | -74.44436 | 26854 ft | 435 kts | 99° |
| 2026-05-06 23:27 | 43.44145 | -74.40287 | 26862 ft | 435 kts | 99° |
| 2026-05-06 23:27 | 43.43882 | -74.36144 | 26857 ft | 435 kts | 99° |
| 2026-05-06 23:28 | 43.43614 | -74.31994 | 26840 ft | 436 kts | 99° |
| 2026-05-06 23:28 | 43.43332 | -74.27841 | 26837 ft | 436 kts | 99° |
| 2026-05-06 23:28 | 43.43049 | -74.23692 | 26840 ft | 436 kts | 99° |
| 2026-05-06 23:28 | 43.42771 | -74.19542 | 26837 ft | 436 kts | 99° |
| 2026-05-06 23:29 | 43.42491 | -74.15389 | 26836 ft | 436 kts | 99° |
| 2026-05-06 23:29 | 43.42211 | -74.11296 | 26839 ft | 435 kts | 99° |
| 2026-05-06 23:29 | 43.41925 | -74.07148 | 26835 ft | 436 kts | 99° |
| 2026-05-06 23:29 | 43.41640 | -74.03005 | 26839 ft | 436 kts | 99° |
| 2026-05-06 23:30 | 43.41352 | -73.98843 | 26819 ft | 436 kts | 99° |
| 2026-05-06 23:30 | 43.41062 | -73.94690 | 26829 ft | 436 kts | 99° |
| 2026-05-06 23:30 | 43.40771 | -73.90540 | 26835 ft | 436 kts | 99° |
| 2026-05-06 23:30 | 43.40478 | -73.86389 | 26842 ft | 437 kts | 99° |
| 2026-05-06 23:31 | 43.40184 | -73.82230 | 26836 ft | 437 kts | 99° |
| 2026-05-06 23:31 | 43.39889 | -73.78077 | 26846 ft | 437 kts | 99° |
| 2026-05-06 23:31 | 43.39592 | -73.73923 | 26842 ft | 436 kts | 99° |
| 2026-05-06 23:31 | 43.39293 | -73.69773 | 26843 ft | 436 kts | 99° |
| 2026-05-06 23:32 | 43.38992 | -73.65617 | 26842 ft | 436 kts | 99° |
| 2026-05-06 23:32 | 43.38690 | -73.61465 | 26840 ft | 438 kts | 99° |
| 2026-05-06 23:32 | 43.38390 | -73.57353 | 26841 ft | 438 kts | 99° |
| 2026-05-06 23:32 | 43.38084 | -73.53187 | 26841 ft | 438 kts | 99° |
| 2026-05-06 23:33 | 43.37778 | -73.49028 | 26840 ft | 438 kts | 99° |
| 2026-05-06 23:33 | 43.37469 | -73.44864 | 26841 ft | 438 kts | 100° |
| 2026-05-06 23:33 | 43.37159 | -73.40709 | 26842 ft | 438 kts | 100° |
| 2026-05-06 23:33 | 43.36847 | -73.36545 | 26839 ft | 438 kts | 100° |
| 2026-05-06 23:34 | 43.36534 | -73.32379 | 26841 ft | 438 kts | 100° |
| 2026-05-06 23:34 | 43.36220 | -73.28226 | 26830 ft | 438 kts | 100° |
| 2026-05-06 23:34 | 43.35899 | -73.24023 | 26832 ft | 443 kts | 100° |
| 2026-05-06 23:34 | 43.35579 | -73.19819 | 26825 ft | 442 kts | 100° |
| 2026-05-06 23:35 | 43.35261 | -73.15672 | 26820 ft | 442 kts | 100° |
| 2026-05-06 23:35 | 43.34938 | -73.11475 | 26835 ft | 442 kts | 100° |
| 2026-05-06 23:35 | 43.34611 | -73.07273 | 26828 ft | 442 kts | 100° |
| 2026-05-06 23:35 | 43.34285 | -73.03074 | 26844 ft | 438 kts | 100° |
| 2026-05-06 23:36 | 43.33967 | -72.98973 | 26840 ft | 428 kts | 100° |
| 2026-05-06 23:36 | 43.33644 | -72.94896 | 26797 ft | 430 kts | 100° |
| 2026-05-06 23:36 | 43.33316 | -72.90789 | 26824 ft | 435 kts | 100° |
| 2026-05-06 23:36 | 43.32990 | -72.86665 | 26825 ft | 435 kts | 100° |
| 2026-05-06 23:37 | 43.32663 | -72.82528 | 26820 ft | 436 kts | 100° |
| 2026-05-06 23:37 | 43.32336 | -72.78447 | 26784 ft | 436 kts | 100° |
| 2026-05-06 23:37 | 43.32002 | -72.74313 | 26783 ft | 436 kts | 100° |
| 2026-05-06 23:37 | 43.31668 | -72.70174 | 26787 ft | 436 kts | 100° |
| 2026-05-06 23:38 | 43.31333 | -72.66039 | 26791 ft | 436 kts | 101° |
| 2026-05-06 23:38 | 43.30995 | -72.61897 | 26793 ft | 436 kts | 101° |
| 2026-05-06 23:38 | 43.30655 | -72.57754 | 26784 ft | 438 kts | 101° |
| 2026-05-06 23:38 | 43.30311 | -72.53585 | 26784 ft | 440 kts | 101° |
| 2026-05-06 23:39 | 43.29968 | -72.49415 | 26786 ft | 439 kts | 101° |
| 2026-05-06 23:39 | 43.29622 | -72.45250 | 26785 ft | 440 kts | 101° |
| 2026-05-06 23:39 | 43.29280 | -72.41142 | 26784 ft | 439 kts | 101° |
| 2026-05-06 23:39 | 43.28930 | -72.36973 | 26781 ft | 439 kts | 101° |
| 2026-05-06 23:40 | 43.28581 | -72.32819 | 26779 ft | 439 kts | 101° |
| 2026-05-06 23:40 | 43.28228 | -72.28650 | 26775 ft | 440 kts | 101° |
| 2026-05-06 23:40 | 43.27875 | -72.24483 | 26746 ft | 440 kts | 101° |
| 2026-05-06 23:40 | 43.27520 | -72.20313 | 26766 ft | 441 kts | 101° |
| 2026-05-06 23:41 | 43.27163 | -72.16140 | 26752 ft | 440 kts | 101° |
| 2026-05-06 23:41 | 43.26803 | -72.11965 | 26752 ft | 441 kts | 101° |
| 2026-05-06 23:41 | 43.26442 | -72.07792 | 26749 ft | 440 kts | 101° |
| 2026-05-06 23:41 | 43.26081 | -72.03627 | 26757 ft | 439 kts | 101° |
| 2026-05-06 23:42 | 43.25723 | -71.99520 | 26756 ft | 440 kts | 101° |
| 2026-05-06 23:42 | 43.25358 | -71.95351 | 26758 ft | 440 kts | 101° |
| 2026-05-06 23:42 | 43.24992 | -71.91185 | 26763 ft | 440 kts | 101° |
| 2026-05-06 23:42 | 43.24625 | -71.87018 | 26754 ft | 441 kts | 102° |
| 2026-05-06 23:43 | 43.24254 | -71.82840 | 26751 ft | 441 kts | 102° |
| 2026-05-06 23:43 | 43.23882 | -71.78662 | 26759 ft | 442 kts | 102° |
| 2026-05-06 23:43 | 43.23509 | -71.74477 | 26756 ft | 442 kts | 102° |
| 2026-05-06 23:43 | 43.23138 | -71.70325 | 26444 ft | 435 kts | 102° |
| 2026-05-06 23:44 | 43.22778 | -71.66289 | 25472 ft | 414 kts | 102° |
| 2026-05-06 23:44 | 43.22439 | -71.62480 | 24383 ft | 393 kts | 103° |
| 2026-05-06 23:44 | 43.22107 | -71.58830 | 23171 ft | 379 kts | 101° |
| 2026-05-06 23:44 | 43.22116 | -71.55298 | 21836 ft | 372 kts | 91° |
| 2026-05-06 23:45 | 43.22330 | -71.51812 | 20538 ft | 362 kts | 90° |
| 2026-05-06 23:45 | 43.22561 | -71.48409 | 19310 ft | 355 kts | 90° |
| 2026-05-06 23:45 | 43.22776 | -71.45077 | 18139 ft | 348 kts | 90° |
| 2026-05-06 23:45 | 43.22974 | -71.41797 | 16837 ft | 342 kts | 90° |
| 2026-05-06 23:46 | 43.23170 | -71.38580 | 15586 ft | 335 kts | 89° |
| 2026-05-06 23:46 | 43.23367 | -71.35435 | 14387 ft | 328 kts | 88° |
| 2026-05-06 23:46 | 43.23559 | -71.32352 | 13190 ft | 321 kts | 88° |
| 2026-05-06 23:46 | 43.23743 | -71.29336 | 11921 ft | 314 kts | 88° |
| 2026-05-06 23:47 | 43.23923 | -71.26393 | 10708 ft | 306 kts | 87° |
| 2026-05-06 23:47 | 43.24095 | -71.23549 | 9536 ft | 300 kts | 86° |
| 2026-05-06 23:47 | 43.24266 | -71.20734 | 8274 ft | 293 kts | 86° |
| 2026-05-06 23:47 | 43.24433 | -71.17977 | 7047 ft | 288 kts | 86° |
| 2026-05-06 23:48 | 43.24596 | -71.15261 | 5851 ft | 284 kts | 86° |
| 2026-05-06 23:48 | 43.24758 | -71.12589 | 4620 ft | 278 kts | 86° |
| 2026-05-06 23:48 | 43.24917 | -71.09967 | 3381 ft | 275 kts | 87° |
| 2026-05-06 23:48 | 43.25071 | -71.07377 | 2354 ft | 265 kts | 88° |
| 2026-05-06 23:49 | 43.25216 | -71.04991 | 1996 ft | 233 kts | 89° |
| 2026-05-06 23:49 | 43.25338 | -71.02995 | 2003 ft | 196 kts | 90° |
| 2026-05-06 23:49 | 43.25440 | -71.01148 | 2020 ft | 188 kts | 91° |
| 2026-05-06 23:49 | 43.25541 | -70.99377 | 2011 ft | 186 kts | 91° |
| 2026-05-06 23:50 | 43.25508 | -70.97644 | 1988 ft | 179 kts | 115° |
| 2026-05-06 23:50 | 43.23950 | -70.95558 | 2006 ft | 150 kts | 158° |
| 2026-05-06 23:50 | 43.23061 | -70.94838 | 2013 ft | 147 kts | 157° |
| 2026-05-06 23:51 | 43.22175 | -70.94114 | 2007 ft | 149 kts | 158° |
| 2026-05-06 23:51 | 43.21292 | -70.93392 | 2011 ft | 147 kts | 157° |
| 2026-05-06 23:51 | 43.20413 | -70.92673 | 2010 ft | 147 kts | 157° |
| 2026-05-06 23:51 | 43.19529 | -70.91951 | 2013 ft | 148 kts | 158° |
| 2026-05-06 23:52 | 43.18645 | -70.91228 | 2010 ft | 148 kts | 158° |
| 2026-05-06 23:52 | 43.17766 | -70.90511 | 2008 ft | 147 kts | 157° |
| 2026-05-06 23:52 | 43.16888 | -70.89791 | 1911 ft | 146 kts | 156° |
| 2026-05-06 23:52 | 43.16021 | -70.89075 | 1729 ft | 144 kts | 157° |
| 2026-05-06 23:53 | 43.15163 | -70.88376 | 1538 ft | 146 kts | 155° |
| 2026-05-06 23:53 | 43.14313 | -70.87666 | 1342 ft | 146 kts | 156° |
| 2026-05-06 23:53 | 43.13457 | -70.86964 | 1151 ft | 143 kts | 156° |
| 2026-05-06 23:53 | 43.12596 | -70.86268 | 958 ft | 146 kts | 155° |
| 2026-05-06 23:54 | 43.11723 | -70.85561 | 792 ft | 142 kts | 151° |
| 2026-05-06 23:54 | 43.10854 | -70.84831 | 575 ft | 149 kts | 150° |
| 2026-05-06 23:54 | 43.09981 | -70.84099 | 395 ft | 140 kts | 152° |
| 2026-05-06 23:54 | 43.09144 | -70.83421 | 165 ft | 137 kts | 153° |
| 2026-05-06 23:55 | 43.08364 | -70.82784 | 97 ft | 112 kts | 150° |
| 2026-05-06 23:55 | 43.07886 | -70.82395 | 92 ft | 54 kts | 150° |
| 2026-05-06 23:55 | 43.07655 | -70.82208 | 93 ft | 26 kts | 150° |
| 2026-05-06 23:55 | 43.07501 | -70.82086 | 93 ft | 22 kts | 149° |
| 2026-05-06 23:56 | 43.07463 | -70.81986 | 95 ft | 12 kts | 72° |
| 2026-05-06 23:56 | 43.07516 | -70.81856 | 95 ft | 20 kts | 59° |
| 2026-05-06 23:56 | 43.07578 | -70.81726 | 93 ft | 12 kts | 29° |
| 2026-05-06 23:56 | 43.07667 | -70.81762 | 94 ft | 17 kts | 328° |
| 2026-05-06 23:57 | 43.07790 | -70.81866 | 95 ft | 27 kts | 329° |
| 2026-05-06 23:57 | 43.07997 | -70.82037 | 94 ft | 39 kts | 328° |
| 2026-05-06 23:57 | 43.08240 | -70.82233 | 96 ft | 40 kts | 329° |
| 2026-05-06 23:57 | 43.08376 | -70.82291 | 96 ft | 11 kts | 55° |
| 2026-05-06 23:58 | 43.08422 | -70.82265 | 95 ft | 8 kts | 331° |